Time;durP1;ratioP1;P1;durP2;ratioP2;P2;SDS_P1;SDS_P2;PMS_P1;PMS_P2;Temp;Humidity;BMP_temperature;BMP_pressure;BME280_temperature;BME280_humidity;BME280_pressure;Samples;Min_cycle;Max_cycle;Signal;HPM_P1;HPM_P2
2023/07/22 00:02:01;;;;;;;5.40;2.40;;;;;;;16.26;85.05;99958.82;223133;1268;141453;-86
2023/07/22 00:07:01;;;;;;;6.60;2.80;;;;;;;16.23;85.59;99956.40;223811;1266;96637;-86
2023/07/22 00:12:02;;;;;;;4.90;2.50;;;;;;;16.18;85.77;99950.23;223196;1267;140687;-87
2023/07/22 00:17:03;;;;;;;7.70;3.10;;;;;;;16.16;85.95;99944.34;223771;1266;139201;-86
2023/07/22 00:22:04;;;;;;;5.80;2.80;;;;;;;16.15;86.38;99942.92;223203;1266;140782;-87
2023/07/22 00:27:06;;;;;;;5.40;2.30;;;;;;;16.14;86.04;99947.63;223725;1266;138529;-86
2023/07/22 00:32:08;;;;;;;4.10;2.20;;;;;;;16.10;86.83;99956.11;223169;1267;141994;-86
2023/07/22 00:37:08;;;;;;;4.60;2.30;;;;;;;16.01;87.05;99950.02;223726;1266;138426;-86
2023/07/22 00:42:09;;;;;;;5.50;2.60;;;;;;;15.91;87.32;99947.81;223309;1267;140837;-86
2023/07/22 00:47:10;;;;;;;3.90;2.30;;;;;;;15.84;87.82;99946.20;223741;1267;140133;-86
2023/07/22 00:52:10;;;;;;;5.70;2.90;;;;;;;15.75;88.70;99948.89;223170;1267;141469;-86
2023/07/22 00:57:11;;;;;;;7.70;3.50;;;;;;;15.68;88.97;99950.77;223701;1266;139212;-86
2023/07/22 01:02:12;;;;;;;4.90;2.50;;;;;;;15.62;89.23;99954.61;223213;1267;142153;-86
2023/07/22 01:07:13;;;;;;;6.10;3.00;;;;;;;15.54;89.51;99950.53;223750;1267;138872;-86
2023/07/22 01:12:13;;;;;;;7.80;3.20;;;;;;;15.51;89.35;99955.98;223307;1268;140591;-87
2023/07/22 01:17:14;;;;;;;5.30;2.80;;;;;;;15.50;90.19;99960.18;223706;1266;138446;-86
2023/07/22 01:22:16;;;;;;;6.20;3.00;;;;;;;15.46;90.89;99965.09;223093;1267;140290;-85
2023/07/22 01:27:16;;;;;;;5.40;2.90;;;;;;;15.39;91.00;99955.86;223649;1271;138563;-86
2023/07/22 01:32:17;;;;;;;6.80;4.00;;;;;;;15.34;91.24;99959.41;223172;1266;140727;-86
2023/07/22 01:37:18;;;;;;;6.20;3.20;;;;;;;15.31;92.30;99959.13;223737;1268;138501;-86
2023/07/22 01:42:19;;;;;;;5.90;3.30;;;;;;;15.25;92.15;99959.05;223339;1269;141726;-86
2023/07/22 01:47:19;;;;;;;6.50;3.30;;;;;;;15.20;92.34;99965.84;223723;1267;138524;-87
2023/07/22 01:52:20;;;;;;;6.90;3.30;;;;;;;15.18;92.46;99971.52;223186;1266;141474;-86
2023/07/22 01:57:20;;;;;;;5.00;2.90;;;;;;;15.13;92.85;99968.10;223743;1266;138500;-86
2023/07/22 02:02:21;;;;;;;6.40;3.30;;;;;;;15.06;92.59;99968.13;223212;1267;141928;-86
2023/07/22 02:07:21;;;;;;;6.50;3.50;;;;;;;15.00;93.19;99970.60;223710;1267;138571;-86
2023/07/22 02:12:22;;;;;;;7.40;3.60;;;;;;;14.91;93.32;99966.04;223310;1267;141542;-86
2023/07/22 02:17:23;;;;;;;6.50;3.40;;;;;;;14.84;93.35;99970.17;223702;1267;139000;-86
2023/07/22 02:22:24;;;;;;;7.70;4.10;;;;;;;14.77;93.44;99964.27;223164;1268;139502;-87
2023/07/22 02:27:24;;;;;;;6.70;4.10;;;;;;;14.69;93.87;99963.65;223766;1268;138623;-86
2023/07/22 02:32:25;;;;;;;7.80;4.40;;;;;;;14.62;94.18;99963.65;223203;1267;140662;-86
2023/07/22 02:37:25;;;;;;;7.60;3.80;;;;;;;14.58;94.97;99967.29;223770;1267;138869;-86
2023/07/22 02:42:26;;;;;;;9.00;4.40;;;;;;;14.55;94.20;99970.32;223298;1268;140896;-86
2023/07/22 02:47:26;;;;;;;6.80;3.70;;;;;;;14.53;94.74;99977.70;223670;1267;138416;-86
2023/07/22 02:52:26;;;;;;;8.50;3.60;;;;;;;14.46;94.56;99977.48;223164;1266;140368;-86
2023/07/22 02:57:27;;;;;;;10.70;4.40;;;;;;;14.43;94.88;99974.02;223617;1267;138725;-86
2023/07/22 03:02:28;;;;;;;9.30;4.00;;;;;;;14.37;95.76;99970.44;223189;1267;141935;-86
2023/07/22 03:07:29;;;;;;;7.20;4.30;;;;;;;14.31;95.04;99975.19;223732;1268;138837;-86
2023/07/22 03:12:29;;;;;;;7.60;4.20;;;;;;;14.25;95.71;99976.52;223291;1266;141126;-86
2023/07/22 03:17:30;;;;;;;10.20;5.00;;;;;;;14.20;95.60;99983.06;223709;1266;138552;-86
2023/07/22 03:22:31;;;;;;;9.50;4.50;;;;;;;14.18;96.42;99986.21;223192;1268;141480;-86
2023/07/22 03:27:31;;;;;;;6.40;3.80;;;;;;;14.13;96.59;99988.95;223658;1267;138870;-86
2023/07/22 03:32:32;;;;;;;9.50;4.80;;;;;;;14.08;96.60;99992.25;223171;1268;142077;-86
2023/07/22 03:37:32;;;;;;;9.70;5.60;;;;;;;14.07;96.76;99991.78;223728;1267;139402;-86
2023/07/22 03:42:34;;;;;;;7.80;4.40;;;;;;;14.04;97.76;99989.52;223287;1268;140387;-86
2023/07/22 03:47:34;;;;;;;10.90;5.90;;;;;;;14.04;98.11;99995.38;223661;1268;139090;-87
2023/07/22 03:52:35;;;;;;;10.60;4.90;;;;;;;14.03;98.27;99995.31;223114;1266;140994;-85
2023/07/22 03:57:36;;;;;;;8.10;4.80;;;;;;;14.05;98.16;99998.29;223651;1268;139350;-85
2023/07/22 04:02:37;;;;;;;11.60;6.00;;;;;;;14.06;98.67;99997.80;223138;1269;140093;-87
2023/07/22 04:07:37;;;;;;;10.80;6.30;;;;;;;14.06;99.56;99996.86;223584;1267;138988;-86
2023/07/22 04:12:38;;;;;;;10.90;5.60;;;;;;;14.04;99.85;99994.73;223223;1268;140254;-86
2023/07/22 04:17:39;;;;;;;11.30;5.70;;;;;;;14.07;99.92;99991.70;223646;1271;139455;-86
2023/07/22 04:22:39;;;;;;;14.30;6.90;;;;;;;14.11;99.94;99990.33;223159;1268;141005;-86
2023/07/22 04:27:39;;;;;;;11.70;6.50;;;;;;;14.14;100.00;99999.94;223660;1267;138898;-86
2023/07/22 04:32:40;;;;;;;11.60;7.10;;;;;;;14.19;100.00;99994.92;223128;1267;140809;-86
2023/07/22 04:37:40;;;;;;;15.90;7.90;;;;;;;14.25;100.00;100003.50;223589;1270;139274;-86
2023/07/22 04:42:41;;;;;;;11.40;7.30;;;;;;;14.30;100.00;100003.76;223227;1268;141347;-87
2023/07/22 04:47:44;;;;;;;11.70;7.30;;;;;;;14.35;100.00;100003.63;223677;1267;138808;-86
2023/07/22 04:52:46;;;;;;;12.70;8.10;;;;;;;14.43;100.00;100006.21;223131;1267;142679;-87
2023/07/22 04:57:47;;;;;;;13.00;8.30;;;;;;;14.54;100.00;100009.73;223596;1271;139679;-87
2023/07/22 05:02:48;;;;;;;11.10;7.70;;;;;;;14.64;100.00;100009.21;223202;1267;141592;-88
2023/07/22 05:07:49;;;;;;;12.10;8.20;;;;;;;14.76;100.00;100012.15;223652;1268;139273;-87
2023/07/22 05:12:50;;;;;;;12.00;8.40;;;;;;;14.92;100.00;100011.71;223234;1267;141432;-88
2023/07/22 05:17:51;;;;;;;14.40;7.80;;;;;;;15.07;100.00;100016.10;223692;1271;138782;-87
2023/07/22 05:22:51;;;;;;;12.30;7.30;;;;;;;15.23;100.00;100022.54;223145;1268;141042;-88
2023/07/22 05:27:52;;;;;;;12.80;8.30;;;;;;;15.40;100.00;100023.26;223632;1267;139061;-87
2023/07/22 05:32:53;;;;;;;10.60;7.10;;;;;;;15.65;100.00;100018.98;223091;1266;142070;-87
2023/07/22 05:37:53;;;;;;;10.30;6.80;;;;;;;15.97;100.00;100022.17;223680;1267;139170;-87
2023/07/22 05:42:54;;;;;;;13.00;6.60;;;;;;;16.43;100.00;100025.30;223232;1270;140702;-87
2023/07/22 05:47:54;;;;;;;10.20;6.50;;;;;;;16.89;99.84;100035.04;223693;1267;140242;-87
2023/07/22 05:52:55;;;;;;;9.70;5.60;;;;;;;17.22;97.90;100040.36;223146;1267;141419;-88
2023/07/22 05:57:55;;;;;;;11.20;6.60;;;;;;;17.55;96.36;100042.27;223690;1268;138918;-88
2023/07/22 06:02:56;;;;;;;8.80;5.20;;;;;;;17.87;94.83;100042.11;223155;1267;140747;-88
2023/07/22 06:07:59;;;;;;;10.20;5.10;;;;;;;18.21;93.04;100046.09;223688;1267;138672;-89
2023/07/22 06:13:00;;;;;;;9.00;5.20;;;;;;;18.60;91.74;100051.05;223200;1268;140415;-89
2023/07/22 06:18:00;;;;;;;8.90;5.60;;;;;;;18.82;88.21;100054.66;223693;1266;138462;-91
2023/07/22 06:23:02;;;;;;;8.80;5.30;;;;;;;18.97;86.35;100062.20;223132;1267;141509;-91
2023/07/22 06:28:02;;;;;;;8.80;5.20;;;;;;;19.14;85.95;100070.71;223645;1267;138667;-87
2023/07/22 06:33:03;;;;;;;9.20;5.10;;;;;;;19.52;84.77;100074.28;223051;1267;142723;-90
2023/07/22 06:38:03;;;;;;;11.90;4.70;;;;;;;19.69;82.76;100075.51;223676;1267;138782;-89
2023/07/22 06:43:05;;;;;;;9.30;5.70;;;;;;;19.89;82.22;100073.18;223224;1267;141842;-88
2023/07/22 06:48:06;;;;;;;8.90;5.30;;;;;;;20.13;81.07;100079.34;223671;1267;95961;-88
2023/07/22 06:53:06;;;;;;;11.00;5.20;;;;;;;20.36;80.03;100080.98;223138;1267;140117;-88
2023/07/22 06:58:06;;;;;;;10.90;5.70;;;;;;;20.63;79.01;100083.52;223684;1267;139594;-88
2023/07/22 07:03:07;;;;;;;7.70;5.10;;;;;;;20.95;78.42;100084.77;223138;1267;140617;-86
2023/07/22 07:08:10;;;;;;;9.90;4.90;;;;;;;21.30;76.42;100093.32;223663;1266;139073;-90
2023/07/22 07:13:10;;;;;;;9.50;5.30;;;;;;;21.45;74.67;100102.02;223147;1266;142321;-87
2023/07/22 07:18:11;;;;;;;7.40;4.50;;;;;;;21.46;73.19;100107.25;223779;1267;96009;-84
2023/07/22 07:23:21;;;;;;;8.60;4.60;;;;;;;21.53;73.57;100106.49;223169;1266;142075;-88
2023/07/22 07:28:24;;;;;;;7.40;4.10;;;;;;;21.63;73.84;100108.91;223632;1267;138882;-88
2023/07/22 07:33:25;;;;;;;7.90;4.10;;;;;;;21.78;73.21;100115.64;223095;1267;141236;-90
2023/07/22 07:38:26;;;;;;;7.40;3.50;;;;;;;21.91;71.31;100119.58;223621;1267;138859;-87
2023/07/22 07:43:27;;;;;;;8.00;3.90;;;;;;;21.83;69.95;100121.11;223086;1266;140670;-90
2023/07/22 07:48:27;;;;;;;5.70;3.50;;;;;;;21.76;70.35;100125.96;223741;1266;96073;-88
2023/07/22 07:53:27;;;;;;;8.30;3.80;;;;;;;21.85;70.97;100124.23;223136;1266;140786;-88
2023/07/22 07:58:28;;;;;;;5.40;3.50;;;;;;;21.95;69.53;100131.73;223688;1266;138746;-89
2023/07/22 08:03:29;;;;;;;7.40;3.40;;;;;;;21.98;69.76;100133.50;222977;1266;140611;-84
2023/07/22 08:08:30;;;;;;;4.00;2.70;;;;;;;22.04;68.44;100136.43;223650;1267;138651;-89
2023/07/22 08:13:31;;;;;;;10.20;3.10;;;;;;;22.13;68.26;100143.11;223086;1266;139754;-91
2023/07/22 08:18:32;;;;;;;5.00;2.60;;;;;;;22.33;67.43;100150.73;223743;1266;96526;-89
2023/07/22 08:23:34;;;;;;;4.50;2.90;;;;;;;22.78;67.09;100155.70;223115;1267;141003;-94
2023/07/22 08:28:34;;;;;;;5.50;2.90;;;;;;;23.07;63.83;100153.63;223653;1266;137956;-90
2023/07/22 08:33:35;;;;;;;4.90;2.30;;;;;;;23.24;64.22;100161.30;223178;1268;140591;-89
2023/07/22 08:38:36;;;;;;;3.40;2.40;;;;;;;23.59;63.14;100168.79;223695;1267;138692;-90
2023/07/22 08:43:40;;;;;;;3.50;2.30;;;;;;;23.71;62.57;100172.02;223050;1267;139285;-90
2023/07/22 08:48:42;;;;;;;5.10;2.20;;;;;;;24.02;61.06;100171.10;223834;1267;96332;-91
2023/07/22 08:53:47;;;;;;;3.60;1.90;;;;;;;24.13;60.95;100178.26;222951;1267;139042;-93
2023/07/22 08:58:52;;;;;;;5.60;1.90;;;;;;;24.48;59.02;100184.56;223595;1266;138396;-90
2023/07/22 09:03:58;;;;;;;4.30;2.00;;;;;;;24.64;58.74;100188.59;223092;1267;138640;-90
2023/07/22 09:09:20;;;;;;;2.80;1.80;;;;;;;25.01;57.75;100190.81;223020;1266;139838;-92
2023/07/22 09:14:21;;;;;;;3.10;1.50;;;;;;;25.49;57.16;100183.51;223603;1266;137996;-91
2023/07/22 09:19:22;;;;;;;3.20;1.80;;;;;;;25.90;54.66;100184.66;223161;1266;140656;-88
2023/07/22 09:24:29;;;;;;;5.30;2.10;;;;;;;25.76;52.44;100188.87;223811;1267;96132;-90
2023/07/22 09:29:49;;;;;;;2.50;1.80;;;;;;;25.70;52.53;100193.08;223095;1266;140279;-90
2023/07/22 09:34:57;;;;;;;3.70;2.00;;;;;;;25.62;51.42;100202.14;223568;1267;137792;-92
2023/07/22 09:39:58;;;;;;;8.50;2.70;;;;;;;25.71;49.54;100205.29;222750;1266;412007;-90
2023/07/22 09:44:58;;;;;;;6.70;2.60;;;;;;;25.38;48.41;100193.33;223668;1267;137978;-89
2023/07/22 09:49:59;;;;;;;5.50;2.60;;;;;;;25.25;48.94;100204.04;223164;1266;140196;-90
2023/07/22 09:55:03;;;;;;;4.60;2.10;;;;;;;25.38;49.00;100204.29;223778;1267;95841;-93
2023/07/22 10:00:04;;;;;;;3.10;1.60;;;;;;;25.93;50.12;100203.52;223031;1266;139780;-91
2023/07/22 10:05:14;;;;;;;3.60;2.00;;;;;;;26.62;47.23;100201.99;223574;1267;138535;-91
2023/07/22 10:10:43;;;;;;;6.20;2.10;;;;;;;27.09;46.46;100200.84;223098;1266;140523;-92
2023/07/22 10:15:45;;;;;;;5.60;2.40;;;;;;;27.10;44.47;100204.91;223640;1266;138007;-92
2023/07/22 10:20:46;;;;;;;4.90;2.20;;;;;;;26.97;45.00;100206.27;223003;1268;139646;-92
2023/07/22 10:25:49;;;;;;;4.50;2.30;;;;;;;27.29;45.31;100216.52;223686;1266;138461;-90
2023/07/22 10:30:52;;;;;;;4.20;2.40;;;;;;;27.47;43.78;100216.10;223167;1266;140546;-90
2023/07/22 10:36:13;;;;;;;8.40;2.90;;;;;;;27.70;42.20;100210.95;223640;1266;139311;-89
2023/07/22 10:41:18;;;;;;;5.40;2.80;;;;;;;27.66;41.38;100218.58;223143;1267;140078;-89
2023/07/22 10:46:32;;;;;;;6.40;3.20;;;;;;;27.87;42.67;100217.63;223589;1267;138227;-91
2023/07/22 10:51:37;;;;;;;8.20;3.20;;;;;;;28.48;40.68;100217.33;223088;1267;139270;-92
2023/07/22 10:56:37;;;;;;;3.90;2.40;;;;;;;28.29;39.92;100216.76;223702;1266;138059;-92
2023/07/22 11:01:39;;;;;;;6.80;2.90;;;;;;;28.17;40.75;100225.73;223140;1267;140736;-91
2023/07/22 11:06:48;;;;;;;7.60;3.30;;;;;;;28.20;38.78;100221.41;223853;1267;96528;-89
2023/07/22 11:11:49;;;;;;;5.60;2.80;;;;;;;28.21;38.76;100216.23;223143;1267;138759;-92
2023/07/22 11:16:50;;;;;;;5.50;2.90;;;;;;;28.24;39.13;100210.02;223641;1266;138145;-89
2023/07/22 11:21:52;;;;;;;6.50;2.90;;;;;;;28.61;39.15;100206.96;223171;1266;141748;-87
2023/07/22 11:26:56;;;;;;;4.80;2.60;;;;;;;28.42;36.33;100213.56;223637;1267;138081;-90
2023/07/22 11:32:00;;;;;;;6.00;2.60;;;;;;;28.16;37.19;100224.11;223064;1266;139539;-90
2023/07/22 11:37:01;;;;;;;3.90;2.10;;;;;;;27.72;36.92;100229.70;223792;1266;97987;-89
2023/07/22 11:42:03;;;;;;;5.00;2.40;;;;;;;27.47;37.53;100228.20;223062;1266;139914;-90
2023/07/22 11:47:07;;;;;;;5.90;2.60;;;;;;;27.60;37.61;100219.45;223754;1266;138380;-90
2023/07/22 11:52:10;;;;;;;5.00;2.70;;;;;;;27.79;38.49;100217.80;222981;1267;139512;-92
2023/07/22 11:57:21;;;;;;;6.50;2.90;;;;;;;28.01;36.98;100218.95;223733;1267;138802;-93
2023/07/22 12:02:26;;;;;;;4.60;2.40;;;;;;;27.81;36.27;100207.09;223092;1267;140677;-91
2023/07/22 12:07:30;;;;;;;;;;;;;;;27.37;35.59;100208.39;223734;1267;138162;-92
2023/07/22 12:12:32;;;;;;;6.20;2.70;;;;;;;27.25;37.98;100209.84;223359;1267;127800;-91
2023/07/22 12:18:04;;;;;;;7.90;2.80;;;;;;;27.35;36.63;100207.08;223712;1266;137961;-90
2023/07/22 12:23:04;;;;;;;5.60;2.60;;;;;;;27.43;35.77;100211.59;223131;1267;140490;-90
2023/07/22 12:28:06;;;;;;;4.70;2.80;;;;;;;27.15;36.32;100217.35;223751;1267;137960;-89
2023/07/22 12:33:07;;;;;;;6.70;2.90;;;;;;;27.07;37.00;100209.70;223199;1267;140109;-92
2023/07/22 12:38:07;;;;;;;4.90;2.80;;;;;;;26.87;36.52;100209.54;223723;1267;137989;-87
2023/07/22 12:43:10;;;;;;;4.10;2.30;;;;;;;26.60;36.30;100215.41;223268;1267;140645;-92
2023/07/22 12:48:11;;;;;;;7.00;2.70;;;;;;;26.56;37.87;100206.07;223844;1267;109865;-88
2023/07/22 12:53:12;;;;;;;6.00;2.60;;;;;;;26.60;36.63;100210.48;223103;1267;139807;-88
2023/07/22 12:58:14;;;;;;;7.00;2.90;;;;;;;26.59;36.96;100206.88;223755;1267;138947;-90
2023/07/22 13:03:14;;;;;;;3.80;2.30;;;;;;;27.02;37.13;100206.95;223112;1267;139728;-90
2023/07/22 13:08:15;;;;;;;7.60;2.70;;;;;;;27.19;35.72;100209.25;223750;1267;138508;-91
2023/07/22 13:13:15;;;;;;;7.10;3.00;;;;;;;27.24;35.67;100213.23;223126;1267;140309;-92
2023/07/22 13:18:16;;;;;;;5.90;2.60;;;;;;;27.13;36.06;100218.31;223853;1267;108629;-91
2023/07/22 13:23:17;;;;;;;9.40;3.30;;;;;;;27.32;36.32;100220.57;223221;1267;140404;-87
2023/07/22 13:28:18;;;;;;;4.70;2.60;;;;;;;27.43;35.61;100219.26;223720;1267;139425;-90
2023/07/22 13:33:18;;;;;;;7.10;3.10;;;;;;;27.56;36.65;100218.16;223077;1266;139246;-91
2023/07/22 13:38:20;;;;;;;7.40;2.90;;;;;;;27.66;36.37;100215.44;223763;1267;139141;-88
2023/07/22 13:43:21;;;;;;;5.70;2.60;;;;;;;27.81;36.09;100219.73;223084;1267;140460;-90
2023/07/22 13:48:21;;;;;;;7.30;2.90;;;;;;;27.85;36.19;100219.23;223863;1266;95981;-93
2023/07/22 13:53:22;;;;;;;8.20;3.50;;;;;;;27.65;35.14;100224.73;223144;1267;140303;-90
2023/07/22 13:58:22;;;;;;;10.20;3.30;;;;;;;27.44;35.34;100225.27;223720;1267;138726;-88
2023/07/22 14:03:23;;;;;;;5.20;2.70;;;;;;;27.32;34.30;100221.33;223214;1267;140389;-90
2023/07/22 14:08:23;;;;;;;7.40;2.90;;;;;;;27.06;33.56;100223.34;223802;1266;138474;-92
2023/07/22 14:13:24;;;;;;;7.20;2.70;;;;;;;26.86;34.20;100223.13;223248;1267;140323;-92
2023/07/22 14:18:24;;;;;;;6.00;2.80;;;;;;;26.86;34.40;100220.36;223801;1267;96037;-87
2023/07/22 14:23:25;;;;;;;8.90;3.00;;;;;;;26.89;34.76;100219.68;223223;1267;139827;-93
2023/07/22 14:28:25;;;;;;;6.00;2.50;;;;;;;26.81;33.56;100211.31;223663;1267;138701;-91
2023/07/22 14:33:26;;;;;;;5.80;2.70;;;;;;;26.42;34.74;100209.77;223256;1267;139660;-92
2023/07/22 14:38:27;;;;;;;6.40;2.60;;;;;;;26.30;34.66;100209.80;223692;1266;139501;-85
2023/07/22 14:43:28;;;;;;;6.20;2.60;;;;;;;26.26;35.03;100204.00;223223;1266;141135;-89
2023/07/22 14:48:28;;;;;;;5.60;2.60;;;;;;;26.22;35.64;100199.98;223734;1267;95771;-89
2023/07/22 14:53:29;;;;;;;7.50;2.40;;;;;;;26.21;36.44;100196.95;223211;1267;140948;-89
2023/07/22 14:58:30;;;;;;;6.00;2.30;;;;;;;26.28;36.15;100195.65;223671;1267;140146;-90
2023/07/22 15:03:31;;;;;;;5.60;2.40;;;;;;;26.38;35.91;100193.14;223206;1266;139873;-90
2023/07/22 15:08:32;;;;;;;7.40;2.40;;;;;;;26.28;34.06;100203.46;223757;1267;138038;-91
2023/07/22 15:13:33;;;;;;;6.10;2.20;;;;;;;25.94;35.25;100200.84;223208;1266;139359;-89
2023/07/22 15:18:34;;;;;;;5.90;2.90;;;;;;;25.84;35.29;100204.74;223726;1267;95944;-88
2023/07/22 15:23:34;;;;;;;5.60;2.30;;;;;;;25.68;35.09;100196.05;223087;1267;141609;-88
2023/07/22 15:28:35;;;;;;;5.30;2.70;;;;;;;25.57;35.18;100197.59;223741;1266;138147;-89
2023/07/22 15:33:35;;;;;;;6.70;2.90;;;;;;;25.48;35.16;100198.55;223165;1267;139778;-87
2023/07/22 15:38:36;;;;;;;4.90;2.50;;;;;;;25.38;35.68;100198.66;223732;1267;138408;-89
2023/07/22 15:43:36;;;;;;;5.60;2.50;;;;;;;25.30;35.62;100194.77;223102;1267;141126;-89
2023/07/22 15:48:37;;;;;;;7.90;2.60;;;;;;;25.23;35.29;100193.03;223818;1267;96209;-87
2023/07/22 15:53:38;;;;;;;6.60;2.60;;;;;;;25.07;34.94;100195.00;223092;1270;139761;-88
2023/07/22 15:58:38;;;;;;;6.90;2.60;;;;;;;24.75;35.56;100193.48;223773;1267;137924;-86
2023/07/22 16:03:39;;;;;;;7.20;3.20;;;;;;;24.46;36.84;100194.95;223129;1267;141091;-88
2023/07/22 16:08:40;;;;;;;6.60;3.20;;;;;;;24.29;36.60;100195.95;223583;1268;138102;-86
2023/07/22 16:13:40;;;;;;;7.30;3.30;;;;;;;24.19;37.36;100198.30;223216;1266;139819;-90
2023/07/22 16:18:43;;;;;;;5.10;2.40;;;;;;;24.08;37.12;100194.88;223853;1266;95876;-87
2023/07/22 16:23:44;;;;;;;7.20;2.90;;;;;;;23.92;37.93;100201.05;223258;1266;141004;-88
2023/07/22 16:28:45;;;;;;;6.10;2.90;;;;;;;23.76;37.42;100207.40;223649;1267;138322;-86
2023/07/22 16:33:45;;;;;;;6.50;3.10;;;;;;;23.64;38.69;100210.67;223216;1267;139343;-86
2023/07/22 16:38:46;;;;;;;10.10;3.10;;;;;;;23.57;38.40;100208.27;223747;1267;138026;-86
2023/07/22 16:43:46;;;;;;;5.90;2.70;;;;;;;23.44;38.35;100202.06;223222;1266;140798;-87
2023/07/22 16:48:47;;;;;;;7.80;3.00;;;;;;;23.36;38.27;100198.01;223843;1267;95884;-88
2023/07/22 16:53:49;;;;;;;6.80;2.50;;;;;;;23.15;38.13;100208.79;223123;1266;139318;-89
2023/07/22 16:58:49;;;;;;;7.60;2.90;;;;;;;22.96;37.96;100206.89;223703;1267;137979;-84
2023/07/22 17:03:50;;;;;;;6.60;3.10;;;;;;;22.87;39.03;100206.88;223096;1266;140923;-85
2023/07/22 17:08:50;;;;;;;7.50;3.30;;;;;;;22.82;39.75;100210.95;223628;1267;138095;-87
2023/07/22 17:13:51;;;;;;;6.40;2.90;;;;;;;22.69;39.43;100208.99;223197;1266;139665;-87
2023/07/22 17:18:51;;;;;;;6.90;3.10;;;;;;;22.62;39.81;100209.95;223840;1266;95841;-87
2023/07/22 17:23:52;;;;;;;8.20;3.20;;;;;;;22.53;39.80;100213.13;223233;1267;141135;-87
2023/07/22 17:28:52;;;;;;;6.90;3.20;;;;;;;22.40;40.20;100207.32;223679;1266;138409;-86
2023/07/22 17:33:53;;;;;;;8.40;3.10;;;;;;;22.32;40.54;100212.52;223256;1266;140333;-89
2023/07/22 17:38:54;;;;;;;7.30;3.20;;;;;;;22.22;40.40;100208.91;223750;1266;138152;-86
2023/07/22 17:43:54;;;;;;;7.20;3.20;;;;;;;22.07;40.68;100207.50;223231;1266;244934;-86
2023/07/22 17:48:55;;;;;;;9.50;3.10;;;;;;;21.97;41.18;100201.34;223292;1268;139627;-86
2023/07/22 17:53:55;;;;;;;7.40;3.10;;;;;;;21.89;41.44;100204.38;223730;1267;138502;-86
2023/07/22 17:58:56;;;;;;;9.00;3.80;;;;;;;21.78;41.55;100205.36;223099;1267;141265;-87
2023/07/22 18:03:56;;;;;;;6.70;3.50;;;;;;;21.68;41.87;100202.78;223659;1267;138077;-87
2023/07/22 18:08:57;;;;;;;9.00;3.30;;;;;;;21.58;42.67;100202.11;223230;1266;139586;-90
2023/07/22 18:13:57;;;;;;;6.80;3.50;;;;;;;21.43;42.70;100200.63;223652;1266;139521;-86
2023/07/22 18:18:58;;;;;;;6.80;3.30;;;;;;;21.30;44.01;100206.16;223313;1270;140988;-86
2023/07/22 18:23:58;;;;;;;11.70;3.40;;;;;;;21.17;44.25;100201.30;223651;1266;138778;-87
2023/07/22 18:28:58;;;;;;;9.00;3.50;;;;;;;21.04;44.71;100201.10;223187;1267;140373;-86
2023/07/22 18:33:59;;;;;;;6.30;3.00;;;;;;;20.88;45.14;100205.71;223774;1266;138610;-86
2023/07/22 18:38:59;;;;;;;7.10;3.30;;;;;;;20.73;45.45;100210.73;223127;1270;161487;-86
2023/07/22 18:44:00;;;;;;;6.00;3.30;;;;;;;20.58;46.10;100209.27;223761;1268;138289;-86
2023/07/22 18:49:00;;;;;;;7.10;3.90;;;;;;;20.40;46.55;100212.52;223284;1267;139779;-86
2023/07/22 18:54:01;;;;;;;9.20;3.50;;;;;;;20.26;47.21;100214.50;223744;1266;137936;-86
2023/07/22 18:59:01;;;;;;;8.60;3.60;;;;;;;20.13;47.88;100215.64;223187;1270;140655;-86
2023/07/22 19:04:01;;;;;;;7.30;3.30;;;;;;;19.98;48.22;100215.75;223770;1266;138403;-86
2023/07/22 19:09:02;;;;;;;8.70;3.90;;;;;;;19.81;48.79;100230.47;223175;1266;140433;-87
2023/07/22 19:14:03;;;;;;;8.70;3.50;;;;;;;19.61;49.21;100233.13;223758;1267;137985;-87
2023/07/22 19:19:03;;;;;;;7.10;3.20;;;;;;;19.43;49.90;100239.30;223322;1267;141394;-86
2023/07/22 19:24:04;;;;;;;8.30;4.10;;;;;;;19.27;50.60;100247.89;223737;1266;138220;-86
2023/07/22 19:29:05;;;;;;;8.00;3.40;;;;;;;19.14;51.42;100251.79;223227;1266;140607;-86
2023/07/22 19:34:05;;;;;;;8.60;4.20;;;;;;;18.98;52.60;100257.80;223739;1267;138057;-86
2023/07/22 19:39:06;;;;;;;12.00;5.00;;;;;;;18.81;53.03;100265.39;223175;1268;140558;-86
2023/07/22 19:44:06;;;;;;;12.40;5.50;;;;;;;18.65;53.92;100268.11;223715;1267;138269;-86
2023/07/22 19:49:07;;;;;;;10.60;4.70;;;;;;;18.49;55.15;100272.02;223306;1266;141149;-86
2023/07/22 19:54:07;;;;;;;9.20;4.20;;;;;;;18.35;55.52;100274.08;223749;1267;137993;-86
2023/07/22 19:59:08;;;;;;;8.10;4.10;;;;;;;18.19;55.92;100271.80;223102;1268;141129;-86
2023/07/22 20:04:08;;;;;;;11.60;5.40;;;;;;;18.04;56.61;100272.90;223737;1267;138228;-86
2023/07/22 20:09:09;;;;;;;12.50;5.30;;;;;;;17.92;56.85;100272.30;223153;1266;141066;-86
2023/07/22 20:14:09;;;;;;;11.40;5.00;;;;;;;17.79;57.86;100276.33;223699;1267;138400;-86
2023/07/22 20:19:10;;;;;;;9.90;4.70;;;;;;;17.64;58.23;100275.28;223287;1267;141186;-86
2023/07/22 20:24:10;;;;;;;7.90;3.90;;;;;;;17.49;58.51;100276.13;223728;1266;137841;-86
2023/07/22 20:29:11;;;;;;;10.90;5.50;;;;;;;17.37;59.06;100271.58;223153;1268;140132;-86
2023/07/22 20:34:11;;;;;;;9.40;4.20;;;;;;;17.24;59.26;100274.99;223666;1268;138649;-86
2023/07/22 20:39:13;;;;;;;8.90;4.60;;;;;;;17.10;59.83;100280.73;223173;1270;141758;-86
2023/07/22 20:44:13;;;;;;;10.80;4.70;;;;;;;16.95;60.49;100282.49;223642;1268;138124;-86
2023/07/22 20:49:14;;;;;;;11.80;5.10;;;;;;;16.81;60.83;100284.55;223167;1270;140981;-86
2023/07/22 20:54:14;;;;;;;10.00;5.60;;;;;;;16.68;61.53;100287.77;223835;1271;95867;-86
2023/07/22 20:59:15;;;;;;;8.70;4.80;;;;;;;16.54;62.05;100287.98;223187;1268;140822;-86
2023/07/22 21:04:15;;;;;;;9.80;4.90;;;;;;;16.48;62.42;100295.09;223692;1269;137921;-86
2023/07/22 21:09:16;;;;;;;11.40;5.30;;;;;;;16.38;63.40;100294.36;223134;1267;141143;-86
2023/07/22 21:14:16;;;;;;;11.20;5.50;;;;;;;16.22;63.89;100296.16;223719;1266;138122;-86
2023/07/22 21:19:17;;;;;;;11.80;6.00;;;;;;;16.08;64.83;100289.77;223170;1267;141924;-85
2023/07/22 21:24:18;;;;;;;11.50;5.50;;;;;;;15.97;65.60;100293.15;223783;1266;105383;-86
2023/07/22 21:29:18;;;;;;;10.60;5.70;;;;;;;15.87;66.16;100289.55;223161;1268;140595;-86
2023/07/22 21:34:19;;;;;;;11.40;5.80;;;;;;;15.76;66.30;100289.70;223691;1267;138256;-86
2023/07/22 21:39:19;;;;;;;10.80;5.60;;;;;;;15.67;66.87;100284.98;222880;1270;366644;-85
2023/07/22 21:44:19;;;;;;;10.30;5.40;;;;;;;15.57;67.29;100290.48;223721;1270;138106;-86
2023/07/22 21:49:20;;;;;;;11.60;5.80;;;;;;;15.52;67.54;100287.85;223175;1268;140534;-86
2023/07/22 21:54:21;;;;;;;13.90;6.10;;;;;;;15.42;68.59;100288.75;223838;1270;96250;-86
2023/07/22 21:59:21;;;;;;;13.30;6.20;;;;;;;15.30;69.02;100293.52;223155;1267;139790;-86
2023/07/22 22:04:22;;;;;;;17.40;6.60;;;;;;;15.22;69.92;100295.09;223709;1267;138189;-86
2023/07/22 22:09:22;;;;;;;10.80;5.50;;;;;;;15.12;69.93;100303.04;223090;1268;140629;-86
2023/07/22 22:14:22;;;;;;;15.10;6.60;;;;;;;15.02;69.86;100300.20;223701;1270;139024;-85
2023/07/22 22:19:23;;;;;;;13.30;6.60;;;;;;;14.97;70.27;100294.16;223159;1267;140692;-86
2023/07/22 22:24:25;;;;;;;14.50;6.50;;;;;;;14.94;71.07;100293.30;223753;1267;96329;-86
2023/07/22 22:29:26;;;;;;;12.00;6.40;;;;;;;14.86;71.19;100288.77;223128;1267;141127;-86
2023/07/22 22:34:26;;;;;;;11.60;6.50;;;;;;;14.80;71.53;100288.27;223680;1267;139598;-86
2023/07/22 22:39:27;;;;;;;13.40;7.10;;;;;;;14.73;72.94;100295.55;223090;1270;142615;-86
2023/07/22 22:44:28;;;;;;;11.70;5.70;;;;;;;14.64;73.69;100302.17;223673;1267;139793;-86
2023/07/22 22:49:29;;;;;;;11.50;5.70;;;;;;;14.56;73.72;100301.05;223141;1267;143042;-86